createdAt,value
2018-05-08T00:02:18.173Z,15.53
2018-05-08T00:04:47.997Z,21.10
2018-05-08T00:07:18.560Z,15.73
2018-05-08T00:09:49.007Z,15.70
2018-05-08T00:12:19.423Z,18.83
2018-05-08T00:14:49.959Z,16.27
2018-05-08T00:17:20.569Z,16.43
2018-05-08T00:19:50.953Z,20.33
2018-05-08T00:22:21.432Z,22.30
2018-05-08T00:24:51.505Z,22.73
2018-05-08T00:27:21.810Z,19.00
2018-05-08T00:29:52.745Z,22.43
2018-05-08T00:32:23.063Z,23.27
2018-05-08T00:34:53.327Z,21.20
2018-05-08T00:37:23.496Z,23.57
2018-05-08T00:39:53.971Z,20.97
2018-05-08T00:42:24.400Z,21.70
2018-05-08T00:44:54.904Z,16.87
2018-05-08T00:47:25.303Z,18.07
2018-05-08T00:49:55.603Z,22.73
2018-05-08T00:52:25.713Z,27.77
2018-05-08T00:55:07.926Z,28.33
2018-05-08T00:57:38.514Z,21.80
2018-05-08T01:00:08.861Z,22.93
2018-05-08T01:02:39.342Z,23.77
2018-05-08T01:05:09.931Z,21.73
2018-05-08T01:07:39.767Z,25.87
2018-05-08T01:10:10.033Z,22.13
2018-05-08T01:12:40.299Z,24.70
2018-05-08T01:15:10.935Z,24.20
2018-05-08T01:17:40.737Z,22.33
2018-05-08T01:20:11.065Z,17.53
2018-05-08T01:22:41.655Z,18.20
2018-05-08T01:25:12.217Z,20.07
2018-05-08T01:27:42.548Z,21.73
2018-05-08T01:30:13.277Z,18.17
2018-05-08T01:32:43.140Z,18.63
2018-05-08T01:35:13.638Z,20.10
2018-05-08T01:37:43.464Z,20.47
2018-05-08T01:40:13.765Z,21.37
2018-05-08T01:42:44.244Z,17.00
2018-05-08T01:45:14.684Z,18.27
2018-05-08T01:47:45.158Z,20.63
2018-05-08T01:50:15.523Z,20.10
2018-05-08T01:52:45.890Z,20.00
2018-05-08T01:55:16.034Z,23.20
2018-05-08T01:57:46.501Z,21.43
2018-05-08T02:00:16.887Z,24.13
2018-05-08T02:02:47.273Z,23.13
2018-05-08T02:05:17.348Z,27.20
2018-05-08T02:07:48.007Z,24.23
2018-05-08T02:10:18.476Z,33.73
2018-05-08T02:12:48.873Z,25.23
2018-05-08T02:15:19.019Z,28.97
2018-05-08T02:17:49.329Z,24.73
2018-05-08T02:20:19.940Z,26.67
2018-05-08T02:22:50.186Z,25.77
2018-05-08T02:25:19.948Z,27.20
2018-05-08T02:27:50.609Z,23.23
2018-05-08T02:30:20.934Z,30.97
2018-05-08T02:32:51.253Z,25.63
2018-05-08T02:35:21.675Z,27.47
2018-05-08T02:37:51.960Z,21.90
2018-05-08T02:40:22.424Z,30.20
2018-05-08T02:42:52.603Z,28.50
2018-05-08T02:45:22.820Z,22.47
2018-05-08T02:47:53.599Z,27.13
2018-05-08T02:50:23.916Z,26.13
2018-05-08T02:52:54.353Z,24.37
2018-05-08T02:55:37.185Z,20.47
2018-05-08T02:58:19.760Z,22.83
2018-05-08T03:00:50.268Z,20.93
2018-05-08T03:03:20.763Z,24.03
2018-05-08T03:05:51.349Z,25.97
2018-05-08T03:08:21.710Z,23.63
2018-05-08T03:10:52.213Z,20.83
2018-05-08T03:13:22.889Z,18.27
2018-05-08T03:15:53.221Z,19.33
2018-05-08T03:18:23.912Z,20.80
2018-05-08T03:20:54.262Z,23.27
2018-05-08T03:23:24.514Z,21.43
2018-05-08T03:25:54.805Z,25.63
2018-05-08T03:28:24.968Z,20.57
2018-05-08T03:30:55.287Z,18.03
2018-05-08T03:33:26.121Z,18.67
2018-05-08T03:35:56.386Z,24.93
2018-05-08T03:38:26.797Z,22.10
2018-05-08T03:40:57.245Z,19.93
2018-05-08T03:43:27.776Z,19.13
2018-05-08T03:45:57.893Z,18.10
2018-05-08T03:48:28.203Z,21.77
2018-05-08T03:50:58.615Z,23.70
2018-05-08T03:53:28.337Z,18.03
2018-05-08T03:55:58.049Z,19.03
2018-05-08T03:58:27.891Z,22.97
2018-05-08T04:01:09.262Z,19.47
2018-05-08T04:03:50.782Z,25.07
2018-05-08T04:06:56.029Z,21.97
2018-05-08T04:09:25.745Z,20.27
2018-05-08T04:11:55.518Z,20.97
2018-05-08T04:14:25.264Z,17.83
2018-05-08T04:16:55.000Z,17.57
2018-05-08T04:19:24.755Z,23.20
2018-05-08T04:21:54.471Z,20.27
2018-05-08T04:24:24.210Z,22.00
2018-05-08T04:26:53.965Z,23.27
2018-05-08T04:29:23.679Z,22.53
2018-05-08T04:31:53.409Z,20.57
2018-05-08T04:34:23.124Z,17.20
2018-05-08T04:36:52.929Z,15.60
2018-05-08T04:39:22.653Z,15.67
2018-05-08T04:41:52.385Z,16.50
2018-05-08T04:44:22.135Z,14.07
2018-05-08T04:46:51.854Z,21.00
2018-05-08T04:49:21.606Z,17.17
2018-05-08T04:51:51.312Z,20.13
2018-05-08T04:54:21.093Z,14.83
2018-05-08T04:56:50.841Z,18.77
2018-05-08T04:59:20.561Z,16.43
2018-05-08T05:01:50.312Z,21.27
2018-05-08T05:04:20.077Z,19.67
2018-05-08T05:06:49.785Z,16.60
2018-05-08T05:09:19.501Z,17.80
2018-05-08T05:11:49.242Z,16.03
2018-05-08T05:14:18.975Z,18.27
2018-05-08T05:16:48.813Z,13.40
2018-05-08T05:19:18.462Z,18.23
2018-05-08T05:21:48.266Z,18.27
2018-05-08T05:24:17.963Z,15.23
2018-05-08T05:26:47.705Z,17.10
2018-05-08T05:29:17.458Z,14.80
2018-05-08T05:31:47.228Z,17.67
2018-05-08T05:34:17.023Z,14.67
2018-05-08T05:36:46.733Z,14.43
2018-05-08T05:39:16.465Z,15.97
2018-05-08T05:41:46.217Z,12.93
2018-05-08T05:44:16.140Z,17.97
2018-05-08T05:46:45.914Z,15.37
2018-05-08T05:49:15.657Z,14.47
2018-05-08T05:51:45.436Z,18.03
2018-05-08T05:54:16.715Z,15.63
2018-05-08T05:56:48.288Z,16.40
2018-05-08T05:59:18.038Z,13.67
2018-05-08T06:01:47.749Z,15.50
2018-05-08T06:04:17.515Z,15.33
2018-05-08T06:06:47.259Z,13.13
2018-05-08T06:09:16.961Z,18.00
2018-05-08T06:11:46.652Z,16.83
2018-05-08T06:14:16.421Z,16.43
2018-05-08T06:16:46.143Z,14.73
2018-05-08T06:19:15.973Z,15.10
2018-05-08T06:21:45.722Z,12.17
2018-05-08T06:24:15.473Z,17.93
2018-05-08T06:26:45.230Z,17.43
2018-05-08T06:29:14.956Z,15.77
2018-05-08T06:31:44.756Z,15.53
2018-05-08T06:34:14.527Z,15.30
2018-05-08T06:36:44.268Z,14.40
2018-05-08T06:39:14.127Z,13.83
2018-05-08T06:41:43.855Z,17.23
2018-05-08T06:44:13.605Z,12.73
2018-05-08T06:46:43.480Z,13.93
2018-05-08T06:49:13.217Z,12.27
2018-05-08T06:51:43.001Z,14.50
2018-05-08T06:54:12.714Z,12.37
2018-05-08T06:56:42.402Z,15.17
2018-05-08T06:59:12.125Z,13.20
2018-05-08T07:01:41.895Z,12.90
2018-05-08T07:04:11.653Z,15.53
2018-05-08T07:06:41.390Z,14.63
2018-05-08T07:09:11.286Z,13.20
2018-05-08T07:11:40.993Z,11.77
2018-05-08T07:14:10.756Z,14.57
2018-05-08T07:16:40.507Z,11.57
2018-05-08T07:19:10.255Z,10.63
2018-05-08T07:21:40.034Z,11.67
2018-05-08T07:24:09.720Z,14.00
2018-05-08T07:26:39.415Z,12.83
2018-05-08T07:29:09.169Z,11.23
2018-05-08T07:31:38.870Z,13.13
2018-05-08T07:34:08.573Z,12.17
2018-05-08T07:36:38.261Z,13.47
2018-05-08T07:39:07.983Z,12.50
2018-05-08T07:41:37.727Z,13.97
2018-05-08T07:44:07.424Z,13.67
2018-05-08T07:46:37.154Z,15.07
2018-05-08T07:49:06.961Z,14.10
2018-05-08T07:51:36.690Z,12.93
2018-05-08T07:54:06.486Z,14.13
2018-05-08T07:56:36.238Z,12.97
2018-05-08T07:59:06.024Z,14.03
2018-05-08T08:01:35.752Z,13.97
2018-05-08T08:04:05.527Z,15.27
2018-05-08T08:06:35.331Z,13.90
2018-05-08T08:09:05.082Z,11.20
2018-05-08T08:11:34.828Z,14.23
2018-05-08T08:14:04.554Z,17.07
2018-05-08T08:16:34.277Z,15.23
2018-05-08T08:19:04.090Z,16.23
2018-05-08T08:21:33.875Z,14.57
2018-05-08T08:24:03.623Z,16.53
2018-05-08T08:26:33.340Z,13.33
2018-05-08T08:29:03.057Z,13.20
2018-05-08T08:31:32.844Z,14.53
2018-05-08T08:34:02.541Z,13.53
2018-05-08T08:36:32.239Z,13.73
2018-05-08T08:39:02.010Z,15.67
2018-05-08T08:41:31.768Z,14.23
2018-05-08T08:44:01.540Z,13.63
2018-05-08T08:46:31.351Z,10.97
2018-05-08T08:49:01.082Z,9.63
2018-05-08T08:51:30.814Z,11.77
2018-05-08T08:54:00.581Z,16.03
2018-05-08T08:56:30.346Z,14.30
2018-05-08T08:59:00.080Z,16.77
2018-05-08T09:01:29.806Z,10.00
2018-05-08T09:03:59.559Z,9.97
2018-05-08T09:06:29.262Z,13.40
2018-05-08T09:08:59.016Z,14.83
2018-05-08T09:11:28.768Z,11.57
2018-05-08T09:13:58.567Z,8.80
2018-05-08T09:16:28.281Z,12.27
2018-05-08T09:18:57.972Z,10.27
2018-05-08T09:21:27.747Z,12.17
2018-05-08T09:23:57.484Z,10.07
2018-05-08T09:26:27.198Z,15.57
2018-05-08T09:28:56.933Z,13.60
2018-05-08T09:31:26.675Z,10.27
2018-05-08T09:33:56.430Z,10.83
2018-05-08T09:36:26.165Z,10.77
2018-05-08T09:38:55.892Z,11.40
2018-05-08T09:41:26.545Z,9.20
2018-05-08T09:43:56.949Z,8.57
2018-05-08T09:46:27.355Z,10.50
2018-05-08T09:51:51.034Z,10.40
2018-05-08T09:54:23.345Z,11.90
2018-05-08T09:56:53.798Z,12.30
2018-05-08T09:59:24.665Z,7.40
2018-05-08T10:01:56.093Z,10.70
2018-05-08T10:04:28.230Z,12.77
2018-05-08T10:06:59.440Z,8.87
2018-05-08T10:09:30.080Z,8.63
2018-05-08T10:12:00.481Z,9.70
2018-05-08T10:14:31.217Z,8.53
2018-05-08T10:17:02.626Z,7.07
2018-05-08T10:19:32.497Z,10.70
2018-05-08T10:22:02.323Z,9.43
2018-05-08T10:24:32.048Z,8.57
2018-05-08T10:27:01.802Z,10.13
2018-05-08T10:29:31.602Z,12.27
2018-05-08T10:32:01.321Z,9.90
2018-05-08T10:34:31.081Z,7.57
2018-05-08T10:37:00.809Z,8.73
2018-05-08T10:39:30.491Z,8.60
2018-05-08T10:42:00.257Z,7.67
2018-05-08T10:44:29.985Z,6.80
2018-05-08T10:46:59.706Z,8.40
2018-05-08T10:49:29.458Z,7.20
2018-05-08T10:51:59.200Z,8.90
2018-05-08T10:54:28.959Z,7.93
2018-05-08T10:56:58.737Z,8.83
2018-05-08T10:59:28.479Z,9.50
2018-05-08T11:03:50.106Z,9.23
2018-05-08T11:06:20.588Z,8.30
2018-05-08T11:08:51.068Z,11.20
2018-05-08T11:11:21.551Z,8.03
2018-05-08T11:13:51.267Z,7.53
2018-05-08T11:16:21.790Z,9.80
2018-05-08T11:18:51.576Z,7.47
2018-05-08T11:21:22.124Z,9.97
2018-05-08T11:23:52.380Z,10.57
2018-05-08T11:26:22.639Z,9.27
2018-05-08T11:28:53.033Z,8.20
2018-05-08T11:31:22.948Z,7.13
2018-05-08T11:33:53.369Z,10.00
2018-05-08T11:36:23.472Z,7.73
2018-05-08T11:38:53.472Z,7.20
2018-05-08T11:41:23.657Z,8.77
2018-05-08T11:43:54.117Z,6.70
2018-05-08T11:46:24.305Z,5.40
2018-05-08T11:48:54.748Z,9.97
2018-05-08T11:51:24.879Z,5.40
2018-05-08T11:53:55.271Z,9.50
2018-05-08T11:56:25.633Z,6.07
2018-05-08T11:58:56.391Z,7.13
2018-05-08T12:01:26.501Z,6.70
2018-05-08T12:03:56.997Z,13.53
2018-05-08T12:06:27.402Z,7.27
2018-05-08T12:08:57.647Z,8.23
2018-05-08T12:11:27.983Z,6.67
2018-05-08T12:13:58.322Z,6.60
2018-05-08T12:16:28.431Z,7.07
2018-05-08T12:18:58.670Z,7.30
2018-05-08T12:21:28.382Z,6.87
2018-05-08T12:23:58.583Z,7.00
2018-05-08T12:26:28.879Z,8.57
2018-05-08T12:28:59.399Z,7.33
2018-05-08T12:31:29.628Z,7.40
2018-05-08T12:33:59.540Z,7.10
2018-05-08T12:36:29.802Z,8.50
2018-05-08T12:38:59.924Z,7.03
2018-05-08T12:41:30.691Z,8.47
2018-05-08T12:44:01.383Z,6.47
2018-05-08T12:46:31.862Z,7.43
2018-05-08T12:49:02.603Z,6.47
2018-05-08T12:51:32.975Z,7.07
2018-05-08T12:54:03.543Z,9.63
2018-05-08T12:56:34.120Z,7.07
2018-05-08T12:59:04.520Z,7.67
2018-05-08T13:01:34.604Z,10.53
2018-05-08T13:04:04.785Z,9.60
2018-05-08T13:06:35.538Z,14.97
2018-05-08T13:09:05.397Z,8.50
2018-05-08T13:11:35.572Z,8.47
2018-05-08T13:14:06.129Z,11.30
2018-05-08T13:16:36.608Z,9.60
2018-05-08T13:19:07.547Z,8.13
2018-05-08T13:21:37.820Z,10.10
2018-05-08T13:27:17.042Z,7.80
2018-05-08T13:29:47.669Z,10.00
2018-05-08T13:32:17.889Z,9.90
2018-05-08T13:34:47.850Z,10.33
2018-05-08T13:37:18.890Z,9.03
2018-05-08T13:39:49.928Z,9.10
2018-05-08T13:42:20.558Z,8.20
2018-05-08T13:44:51.609Z,6.97
2018-05-08T13:47:22.103Z,7.60
2018-05-08T13:49:52.917Z,8.67
2018-05-08T13:52:22.779Z,8.93
2018-05-08T13:54:52.622Z,7.03
2018-05-08T13:57:22.463Z,8.23
2018-05-08T13:59:52.324Z,7.07
2018-05-08T14:02:22.128Z,11.07
2018-05-08T14:04:51.952Z,7.60
2018-05-08T14:07:21.866Z,7.07
2018-05-08T14:09:51.674Z,11.13
2018-05-08T14:12:21.484Z,5.33
2018-05-08T14:14:51.301Z,9.83
2018-05-08T14:17:21.074Z,8.53
2018-05-08T14:19:51.032Z,5.83
2018-05-08T14:22:20.837Z,11.97
2018-05-08T14:24:50.719Z,5.17
2018-05-08T14:27:21.083Z,5.20
2018-05-08T14:29:50.892Z,5.73
2018-05-08T14:32:20.748Z,9.20
2018-05-08T14:34:50.527Z,6.70
2018-05-08T14:37:20.289Z,7.97
2018-05-08T14:39:50.043Z,6.53
2018-05-08T14:42:19.854Z,8.53
2018-05-08T14:44:49.667Z,8.37
2018-05-08T14:47:19.479Z,4.40
2018-05-08T14:49:49.303Z,5.43
2018-05-08T14:52:19.212Z,4.53
2018-05-08T14:54:49.029Z,12.57
2018-05-08T14:57:18.923Z,4.37
2018-05-08T14:59:48.708Z,5.73
2018-05-08T15:02:18.422Z,5.30
2018-05-08T15:04:48.174Z,5.43
2018-05-08T15:07:18.094Z,6.20
2018-05-08T15:09:47.910Z,5.43
2018-05-08T15:12:17.820Z,6.27
2018-05-08T15:14:47.582Z,4.37
2018-05-08T15:17:17.443Z,6.27
2018-05-08T15:19:47.260Z,5.20
2018-05-08T15:22:17.073Z,5.17
2018-05-08T15:24:46.886Z,6.57
2018-05-08T15:27:16.825Z,6.07
2018-05-08T15:29:46.680Z,6.27
2018-05-08T15:32:16.347Z,7.37
2018-05-08T15:34:46.059Z,4.70
2018-05-08T15:37:15.781Z,6.63
2018-05-08T15:39:45.468Z,7.23
2018-05-08T15:42:15.176Z,4.27
2018-05-08T15:44:44.890Z,6.17
2018-05-08T15:47:14.767Z,6.27
2018-05-08T15:49:44.427Z,6.87
2018-05-08T15:52:14.223Z,5.10
2018-05-08T15:54:43.910Z,5.63
2018-05-08T15:57:13.594Z,6.03
2018-05-08T15:59:43.355Z,5.27
2018-05-08T16:02:13.151Z,5.90
2018-05-08T16:04:42.861Z,9.63
2018-05-08T16:07:12.545Z,8.17
2018-05-08T16:09:42.262Z,5.90
2018-05-08T16:12:12.026Z,5.57
2018-05-08T16:14:41.725Z,5.50
2018-05-08T16:17:11.477Z,6.37
2018-05-08T16:19:41.364Z,5.33
2018-05-08T16:22:10.933Z,7.60
2018-05-08T16:24:40.624Z,5.27
2018-05-08T16:27:10.325Z,5.20
2018-05-08T16:29:40.015Z,5.70
2018-05-08T16:32:09.782Z,6.80
2018-05-08T16:34:39.482Z,5.37
2018-05-08T16:37:09.179Z,6.23
2018-05-08T16:39:38.924Z,5.97
2018-05-08T16:42:08.610Z,8.03
2018-05-08T16:44:38.307Z,7.53
2018-05-08T16:47:08.030Z,7.37
2018-05-08T16:49:37.775Z,6.27
2018-05-08T16:52:07.474Z,6.03
2018-05-08T16:54:37.171Z,7.13
2018-05-08T16:57:06.862Z,22.63
2018-05-08T16:59:36.610Z,7.23
2018-05-08T17:02:06.317Z,7.13
2018-05-08T17:04:35.999Z,10.90
2018-05-08T17:07:05.776Z,7.40
2018-05-08T17:09:35.466Z,9.73
2018-05-08T17:12:05.169Z,8.77
2018-05-08T17:14:34.898Z,9.87
2018-05-08T17:17:04.596Z,7.10
2018-05-08T17:19:34.297Z,11.17
2018-05-08T17:22:04.095Z,8.20
2018-05-08T17:24:33.797Z,10.60
2018-05-08T17:27:03.529Z,7.13
2018-05-08T17:29:33.236Z,12.43
2018-05-08T17:32:02.962Z,8.60
2018-05-08T17:34:32.691Z,8.07
2018-05-08T17:37:02.377Z,10.20
2018-05-08T17:39:32.087Z,7.93
2018-05-08T17:42:01.835Z,15.37
2018-05-08T17:44:31.531Z,10.97
2018-05-08T17:47:01.252Z,10.27
2018-05-08T17:49:30.968Z,8.80
2018-05-08T17:52:00.720Z,11.80
2018-05-08T17:54:30.468Z,10.20
2018-05-08T17:57:00.192Z,10.23
2018-05-08T17:59:29.917Z,9.93
2018-05-08T18:01:59.674Z,8.10
2018-05-08T18:04:29.370Z,8.53
2018-05-08T18:06:59.090Z,9.03
2018-05-08T18:09:28.824Z,14.17
2018-05-08T18:11:58.533Z,10.37
2018-05-08T18:14:28.223Z,12.07
2018-05-08T18:16:57.938Z,10.87
2018-05-08T18:19:27.646Z,10.63
2018-05-08T18:21:57.372Z,11.47
2018-05-08T18:24:27.060Z,12.40
2018-05-08T18:26:56.745Z,13.00
2018-05-08T18:29:26.462Z,10.40
2018-05-08T18:31:56.149Z,12.97
2018-05-08T18:34:25.941Z,17.10
2018-05-08T18:36:55.665Z,9.87
2018-05-08T18:39:25.388Z,11.17
2018-05-08T18:41:55.083Z,12.57
2018-05-08T18:44:24.778Z,11.43
2018-05-08T18:46:54.471Z,14.10
2018-05-08T18:49:24.285Z,12.00
2018-05-08T18:51:53.980Z,16.70
2018-05-08T18:54:23.720Z,11.10
2018-05-08T18:56:53.410Z,10.93
2018-05-08T18:59:23.130Z,11.63
2018-05-08T19:01:52.950Z,11.13
2018-05-08T19:04:22.658Z,14.17
2018-05-08T19:06:52.385Z,11.33
2018-05-08T19:09:22.156Z,11.73
2018-05-08T19:11:51.869Z,13.37
2018-05-08T19:14:21.644Z,13.67
2018-05-08T19:16:51.352Z,12.17
2018-05-08T19:19:26.725Z,13.33
2018-05-08T19:21:56.421Z,12.90
2018-05-08T19:24:31.939Z,11.23
2018-05-08T19:27:01.636Z,12.47
2018-05-08T19:29:36.919Z,12.07
2018-05-08T19:32:06.665Z,14.40
2018-05-08T19:34:41.902Z,13.27
2018-05-08T19:37:17.165Z,13.20
2018-05-08T19:39:46.910Z,12.57
2018-05-08T19:42:16.631Z,12.20
2018-05-08T19:44:46.385Z,16.37
2018-05-08T19:47:16.109Z,11.87
2018-05-08T19:49:45.822Z,13.70
2018-05-08T19:52:15.557Z,11.17
2018-05-08T19:54:45.258Z,12.20
2018-05-08T19:57:15.059Z,11.90
2018-05-08T19:59:44.791Z,11.73
2018-05-08T20:02:14.505Z,13.47
2018-05-08T20:04:44.228Z,13.17
2018-05-08T20:07:13.911Z,13.20
2018-05-08T20:09:43.634Z,11.87
2018-05-08T20:12:13.341Z,14.80
2018-05-08T20:14:43.276Z,15.30
2018-05-08T20:17:13.039Z,14.93
2018-05-08T20:19:42.853Z,14.23
2018-05-08T20:22:12.544Z,13.00
2018-05-08T20:24:42.280Z,13.43
2018-05-08T20:27:12.000Z,14.33
2018-05-08T20:29:41.729Z,13.57
2018-05-08T20:32:11.471Z,13.40
2018-05-08T20:34:41.201Z,15.80
2018-05-08T20:37:10.982Z,13.43
2018-05-08T20:39:40.686Z,13.57
2018-05-08T20:42:10.377Z,12.60
2018-05-08T20:44:40.100Z,14.87
2018-05-08T20:47:09.810Z,12.87
2018-05-08T20:49:39.567Z,12.77
2018-05-08T20:52:09.282Z,12.33
2018-05-08T20:54:39.066Z,14.50
2018-05-08T20:57:08.816Z,13.93
2018-05-08T20:59:38.532Z,13.73
2018-05-08T21:02:08.232Z,11.73
2018-05-08T21:04:38.060Z,13.47
2018-05-08T21:07:07.753Z,12.30
2018-05-08T21:09:37.451Z,10.93
2018-05-08T21:12:07.184Z,11.43
2018-05-08T21:14:36.880Z,11.33
2018-05-08T21:17:06.600Z,11.37
2018-05-08T21:19:36.311Z,12.73
2018-05-08T21:22:06.016Z,12.00
2018-05-08T21:24:35.798Z,12.87
2018-05-08T21:27:05.533Z,14.67
2018-05-08T21:29:40.869Z,14.17
2018-05-08T21:32:10.577Z,13.70
2018-05-08T21:34:40.270Z,13.50
2018-05-08T21:37:10.001Z,12.57
2018-05-08T21:39:39.785Z,13.97
2018-05-08T21:42:09.454Z,12.63
2018-05-08T21:44:39.181Z,12.70
2018-05-08T21:47:08.892Z,12.53
2018-05-08T21:49:38.641Z,13.20
2018-05-08T21:52:08.361Z,13.40
2018-05-08T21:54:38.111Z,14.13
2018-05-08T21:57:07.839Z,15.20
2018-05-08T21:59:37.517Z,14.20
2018-05-08T22:02:07.215Z,14.23
2018-05-08T22:04:36.961Z,15.37
2018-05-08T22:07:06.661Z,15.33
2018-05-08T22:09:36.460Z,14.97
2018-05-08T22:12:06.157Z,14.17
2018-05-08T22:14:35.866Z,16.63
2018-05-08T22:17:05.650Z,14.33
2018-05-08T22:19:35.376Z,13.47
2018-05-08T22:22:05.085Z,14.47
2018-05-08T22:24:34.800Z,14.27
2018-05-08T22:27:04.521Z,17.87
2018-05-08T22:29:34.238Z,16.30
2018-05-08T22:32:03.917Z,20.43
2018-05-08T22:34:33.696Z,13.77
2018-05-08T22:37:03.445Z,14.43
2018-05-08T22:39:33.143Z,14.27
2018-05-08T22:42:02.845Z,17.40
2018-05-08T22:44:32.567Z,19.57
2018-05-08T22:47:02.281Z,16.47
2018-05-08T22:49:31.992Z,16.23
2018-05-08T22:52:01.727Z,19.67
2018-05-08T22:54:32.282Z,20.40
2018-05-08T22:57:02.108Z,19.07
2018-05-08T22:59:31.893Z,19.53
2018-05-08T23:02:02.172Z,19.83
2018-05-08T23:04:32.283Z,23.20
2018-05-08T23:07:02.659Z,19.53
2018-05-08T23:09:32.866Z,26.20
2018-05-08T23:12:02.978Z,21.23
2018-05-08T23:14:33.180Z,25.90
2018-05-08T23:17:03.343Z,26.20
2018-05-08T23:19:33.792Z,23.13
2018-05-08T23:22:04.169Z,23.33
2018-05-08T23:24:34.748Z,22.00
2018-05-08T23:27:04.982Z,21.07
2018-05-08T23:29:34.942Z,23.17
2018-05-08T23:32:05.646Z,21.47
2018-05-08T23:34:36.002Z,22.80
2018-05-08T23:37:06.217Z,20.70
2018-05-08T23:39:36.915Z,15.73
2018-05-08T23:42:07.115Z,17.77
2018-05-08T23:44:37.582Z,15.17
2018-05-08T23:47:07.444Z,19.07
2018-05-08T23:49:37.815Z,21.93
2018-05-08T23:52:08.219Z,17.67
2018-05-08T23:54:38.363Z,16.17
2018-05-08T23:57:08.880Z,18.17
2018-05-08T23:59:39.505Z,18.03
